Terminal Aerodrome Forecast
Issued by NWS Lake Charles, LA

Home | Current Version | Previous Version | Text Only | Print | Product List | Glossary On
Versions: 1 2 3 4 5 6 7 8 9 10 11 12 13 14 15 16
000
FTUS44 KLCH 310129 AAA
TAFARA
TAF AMD
KARA 310129Z 3101/3124 05008KT P6SM VCSH SCT050 SCT110
      TEMPO 3101/3102 VRB12G20KT
     FM310200 02008KT P6SM SCT250=

USA.gov is the U.S. government's official web portal to all federal, state and local government web resources and services.